createdAt,value
2024-01-18T00:01:36.177Z,3.78
2024-01-18T00:04:05.165Z,3.45
2024-01-18T00:06:36.385Z,3.55
2024-01-18T00:09:04.177Z,3.40
2024-01-18T00:11:31.899Z,4.25
2024-01-18T00:14:00.045Z,3.13
2024-01-18T00:16:27.912Z,4.50
2024-01-18T00:18:57.178Z,3.00
2024-01-18T00:21:24.991Z,4.28
2024-01-18T00:23:52.870Z,4.90
2024-01-18T00:26:21.622Z,3.65
2024-01-18T00:28:49.245Z,3.40
2024-01-18T00:31:16.800Z,3.53
2024-01-18T00:33:45.267Z,3.80
2024-01-18T00:36:12.905Z,3.67
2024-01-18T00:38:40.776Z,3.53
2024-01-18T00:41:08.318Z,3.55
2024-01-18T00:43:36.027Z,3.85
2024-01-18T00:46:06.574Z,3.08
2024-01-18T00:48:34.054Z,3.50
2024-01-18T00:51:01.714Z,3.30
2024-01-18T00:53:29.937Z,3.13
2024-01-18T00:55:57.465Z,3.42
2024-01-18T00:58:24.719Z,4.45
2024-01-18T01:00:52.108Z,3.17
2024-01-18T01:03:20.114Z,3.40
2024-01-18T01:05:47.663Z,3.45
2024-01-18T01:08:15.026Z,3.67
2024-01-18T01:10:42.670Z,4.13
2024-01-18T01:13:10.724Z,4.43
2024-01-18T01:15:38.141Z,4.50
2024-01-18T01:18:06.302Z,3.83
2024-01-18T01:20:34.323Z,4.30
2024-01-18T01:23:01.817Z,3.22
2024-01-18T01:25:29.332Z,4.45
2024-01-18T01:27:56.618Z,4.50
2024-01-18T01:30:23.873Z,2.90
2024-01-18T01:32:51.452Z,4.07
2024-01-18T01:35:18.701Z,3.42
2024-01-18T01:37:46.030Z,3.45
2024-01-18T01:40:13.490Z,4.22
2024-01-18T01:42:40.781Z,3.75
2024-01-18T01:45:08.418Z,4.07
2024-01-18T01:47:35.785Z,3.75
2024-01-18T01:50:03.406Z,3.70
2024-01-18T01:52:31.817Z,3.53
2024-01-18T01:54:59.524Z,3.15
2024-01-18T01:57:27.715Z,2.80
2024-01-18T01:59:56.756Z,4.35
2024-01-18T02:02:24.571Z,2.33
2024-01-18T02:04:52.641Z,2.80
2024-01-18T02:07:20.903Z,3.97
2024-01-18T02:09:48.890Z,3.10
2024-01-18T02:12:16.911Z,2.67
2024-01-18T02:14:46.435Z,3.10
2024-01-18T02:17:13.821Z,3.65
2024-01-18T02:19:41.310Z,3.70
2024-01-18T02:22:09.355Z,2.97
2024-01-18T02:24:41.672Z,3.67
2024-01-18T02:27:09.016Z,3.17
2024-01-18T02:29:36.310Z,2.90
2024-01-18T02:32:03.807Z,2.92
2024-01-18T02:34:32.030Z,2.90
2024-01-18T02:36:59.747Z,4.60
2024-01-18T02:39:27.082Z,2.72
2024-01-18T02:41:55.705Z,2.78
2024-01-18T02:44:23.042Z,3.33
2024-01-18T02:46:50.737Z,2.78
2024-01-18T02:49:18.102Z,4.18
2024-01-18T02:51:45.677Z,3.45
2024-01-18T02:54:13.018Z,3.97
2024-01-18T02:56:40.238Z,3.25
2024-01-18T02:59:07.800Z,3.22
2024-01-18T03:01:35.163Z,3.10
2024-01-18T03:04:02.625Z,2.83
2024-01-18T03:06:30.285Z,3.03
2024-01-18T03:08:57.625Z,3.53
2024-01-18T03:11:25.065Z,2.85
2024-01-18T03:13:52.389Z,4.10
2024-01-18T03:16:19.781Z,2.80
2024-01-18T03:18:48.144Z,2.53
2024-01-18T03:21:15.768Z,2.50
2024-01-18T03:23:43.077Z,2.70
2024-01-18T03:26:10.416Z,4.00
2024-01-18T03:28:37.795Z,2.53
2024-01-18T03:31:06.709Z,3.83
2024-01-18T03:33:33.971Z,3.72
2024-01-18T03:36:01.427Z,2.40
2024-01-18T03:38:29.272Z,2.75
2024-01-18T03:40:56.539Z,2.80
2024-01-18T03:43:23.878Z,2.40
2024-01-18T03:45:51.310Z,3.05
2024-01-18T03:48:18.706Z,2.40
2024-01-18T03:50:46.022Z,4.20
2024-01-18T03:53:13.907Z,2.70
2024-01-18T03:55:41.494Z,3.40
2024-01-18T03:58:09.205Z,3.03
2024-01-18T04:00:37.092Z,3.50
2024-01-18T04:03:04.529Z,3.75
2024-01-18T04:05:32.105Z,2.95
2024-01-18T04:07:59.729Z,3.00
2024-01-18T04:10:26.929Z,2.88
2024-01-18T04:12:54.154Z,3.28
2024-01-18T04:15:21.457Z,2.67
2024-01-18T04:17:48.845Z,2.33
2024-01-18T04:20:18.481Z,2.72
2024-01-18T04:22:45.685Z,2.55
2024-01-18T04:25:14.004Z,3.10
2024-01-18T04:27:41.527Z,2.30
2024-01-18T04:30:09.655Z,2.72
2024-01-18T04:32:37.029Z,2.88
2024-01-18T04:35:04.414Z,3.20
2024-01-18T04:37:32.070Z,3.75
2024-01-18T04:39:59.747Z,4.07
2024-01-18T04:42:27.361Z,3.28
2024-01-18T04:44:55.109Z,2.92
2024-01-18T04:47:22.394Z,4.90
2024-01-18T04:49:49.636Z,2.70
2024-01-18T04:52:16.884Z,4.43
2024-01-18T04:54:44.458Z,3.75
2024-01-18T04:57:11.996Z,3.42
2024-01-18T04:59:39.304Z,4.45
2024-01-18T05:02:07.357Z,3.15
2024-01-18T05:04:34.889Z,2.80
2024-01-18T05:07:02.452Z,2.97
2024-01-18T05:09:30.777Z,4.38
2024-01-18T05:11:58.090Z,2.40
2024-01-18T05:14:25.369Z,2.65
2024-01-18T05:16:54.816Z,2.95
2024-01-18T05:19:22.830Z,3.38
2024-01-18T05:21:50.141Z,2.88
2024-01-18T05:24:17.392Z,2.70
2024-01-18T05:26:46.866Z,4.15
2024-01-18T05:29:14.452Z,2.50
2024-01-18T05:31:41.706Z,3.35
2024-01-18T05:34:09.000Z,3.42
2024-01-18T05:36:36.391Z,3.33
2024-01-18T05:39:04.485Z,3.42
2024-01-18T05:41:32.008Z,2.70
2024-01-18T05:43:59.297Z,2.60
2024-01-18T05:46:27.549Z,2.90
2024-01-18T05:48:54.988Z,3.00
2024-01-18T05:51:22.324Z,4.15
2024-01-18T05:53:49.788Z,3.10
2024-01-18T05:56:17.041Z,4.70
2024-01-18T05:58:46.601Z,3.22
2024-01-18T06:01:14.325Z,5.35
2024-01-18T06:03:41.924Z,3.45
2024-01-18T06:06:09.500Z,3.45
2024-01-18T06:08:37.413Z,3.10
2024-01-18T06:11:05.435Z,3.67
2024-01-18T06:13:32.894Z,5.70
2024-01-18T06:16:00.177Z,3.10
2024-01-18T06:18:27.622Z,3.60
2024-01-18T06:20:55.030Z,3.47
2024-01-18T06:23:22.478Z,4.22
2024-01-18T06:25:49.845Z,3.30
2024-01-18T06:28:17.123Z,3.40
2024-01-18T06:30:45.873Z,3.38
2024-01-18T06:33:13.869Z,4.22
2024-01-18T06:35:41.249Z,3.55
2024-01-18T06:38:08.719Z,3.20
2024-01-18T06:40:36.047Z,3.00
2024-01-18T06:43:03.481Z,3.53
2024-01-18T06:45:33.438Z,3.33
2024-01-18T06:48:00.901Z,4.57
2024-01-18T06:50:28.206Z,5.35
2024-01-18T06:52:55.553Z,3.83
2024-01-18T06:55:22.853Z,3.60
2024-01-18T06:57:51.128Z,3.00
2024-01-18T07:00:23.106Z,3.10
2024-01-18T07:02:50.372Z,3.20
2024-01-18T07:05:17.732Z,3.28
2024-01-18T07:07:45.351Z,3.03
2024-01-18T07:10:12.623Z,3.15
2024-01-18T07:12:40.057Z,3.90
2024-01-18T07:15:10.481Z,3.38
2024-01-18T07:17:37.795Z,3.55
2024-01-18T07:20:05.815Z,3.50
2024-01-18T07:22:33.260Z,3.55
2024-01-18T07:25:00.504Z,3.50
2024-01-18T07:27:27.998Z,4.00
2024-01-18T07:29:55.409Z,4.15
2024-01-18T07:32:22.719Z,3.80
2024-01-18T07:34:50.094Z,3.80
2024-01-18T07:37:18.767Z,3.75
2024-01-18T07:39:46.102Z,3.50
2024-01-18T07:42:13.342Z,5.35
2024-01-18T07:44:43.863Z,3.70
2024-01-18T07:47:11.697Z,4.07
2024-01-18T07:49:47.160Z,3.60
2024-01-18T07:52:16.769Z,3.63
2024-01-18T07:54:44.282Z,4.00
2024-01-18T07:57:14.056Z,3.50
2024-01-18T07:59:41.413Z,3.55
2024-01-18T08:02:08.868Z,3.85
2024-01-18T08:04:36.486Z,4.05
2024-01-18T08:07:04.062Z,5.93
2024-01-18T08:09:32.259Z,4.07
2024-01-18T08:11:59.478Z,5.32
2024-01-18T08:14:26.763Z,4.32
2024-01-18T08:16:56.077Z,4.47
2024-01-18T08:19:23.365Z,4.35
2024-01-18T08:21:50.858Z,4.10
2024-01-18T08:24:18.304Z,3.53
2024-01-18T08:26:45.520Z,3.10
2024-01-18T08:29:12.775Z,3.45
2024-01-18T08:31:41.440Z,3.95
2024-01-18T08:34:08.901Z,3.38
2024-01-18T08:36:37.865Z,12.45
2024-01-18T08:39:05.292Z,1.67
2024-01-18T08:41:32.556Z,1.58
2024-01-18T08:43:59.963Z,1.35
2024-01-18T08:46:27.829Z,1.50
2024-01-18T08:48:55.186Z,1.88
2024-01-18T08:51:22.515Z,1.50
2024-01-18T08:53:49.747Z,1.63
2024-01-18T08:56:24.978Z,2.15
2024-01-18T08:58:57.023Z,1.58
2024-01-18T09:01:25.198Z,3.88
2024-01-18T09:03:52.785Z,2.60
2024-01-18T09:06:20.311Z,3.65
2024-01-18T09:08:47.709Z,1.95
2024-01-18T09:11:15.184Z,2.13
2024-01-18T09:13:43.693Z,2.00
2024-01-18T09:16:11.047Z,2.58
2024-01-18T09:18:47.054Z,1.40
2024-01-18T09:21:21.107Z,1.77
2024-01-18T09:23:48.302Z,2.55
2024-01-18T09:26:15.561Z,1.90
2024-01-18T09:28:42.926Z,1.42
2024-01-18T09:31:11.991Z,2.05
2024-01-18T09:33:39.281Z,1.85
2024-01-18T09:36:07.073Z,1.20
2024-01-18T09:38:35.622Z,1.77
2024-01-18T09:41:05.322Z,2.28
2024-01-18T09:43:37.041Z,1.77
2024-01-18T09:46:09.727Z,10.30
2024-01-18T09:48:37.585Z,1.30
2024-01-18T09:51:07.885Z,1.73
2024-01-18T09:53:38.019Z,1.52
2024-01-18T09:56:10.234Z,1.25
2024-01-18T09:58:37.516Z,1.45
2024-01-18T10:01:06.375Z,2.22
2024-01-18T10:03:33.813Z,1.77
2024-01-18T10:06:01.695Z,1.73
2024-01-18T10:08:29.848Z,1.40
2024-01-18T10:10:57.794Z,1.60
2024-01-18T10:13:25.108Z,1.55
2024-01-18T10:15:52.341Z,1.77
2024-01-18T10:18:20.336Z,1.23
2024-01-18T10:20:51.851Z,1.58
2024-01-18T10:23:19.208Z,1.50
2024-01-18T10:25:48.030Z,1.20
2024-01-18T10:28:16.190Z,1.33
2024-01-18T10:30:43.658Z,1.10
2024-01-18T10:33:13.359Z,1.38
2024-01-18T10:35:40.700Z,1.17
2024-01-18T10:38:08.740Z,0.65
2024-01-18T10:40:39.617Z,0.80
2024-01-18T10:43:09.274Z,0.80
2024-01-18T10:45:36.857Z,0.93
2024-01-18T10:48:04.827Z,0.30
2024-01-18T10:50:32.586Z,0.30
2024-01-18T10:53:00.133Z,0.47
2024-01-18T10:55:27.545Z,0.50
2024-01-18T10:57:55.045Z,0.55
2024-01-18T11:00:22.794Z,0.60
2024-01-18T11:02:50.505Z,0.68
2024-01-18T11:05:20.463Z,0.30
2024-01-18T11:07:48.522Z,0.38
2024-01-18T11:10:15.932Z,0.10
2024-01-18T11:12:46.320Z,0.15
2024-01-18T11:15:14.629Z,0.95
2024-01-18T11:17:46.530Z,0.63
2024-01-18T11:20:16.712Z,0.20
2024-01-18T11:22:44.119Z,0.00
2024-01-18T11:25:12.649Z,0.35
2024-01-18T11:27:41.800Z,1.30
2024-01-18T11:30:10.365Z,1.20
2024-01-18T11:32:38.339Z,0.10
2024-01-18T11:35:13.989Z,0.10
2024-01-18T11:37:41.672Z,0.55
2024-01-18T11:40:10.575Z,0.03
2024-01-18T11:42:39.845Z,0.00
2024-01-18T11:45:14.778Z,0.30
2024-01-18T11:47:42.602Z,0.65
2024-01-18T11:50:12.805Z,1.33
2024-01-18T11:52:41.380Z,0.30
2024-01-18T11:55:09.312Z,0.30
2024-01-18T11:57:36.860Z,0.10
2024-01-18T12:00:04.894Z,0.10
2024-01-18T12:02:32.721Z,0.20
2024-01-18T12:04:59.970Z,0.73
2024-01-18T12:07:28.258Z,0.13
2024-01-18T12:09:55.699Z,1.30
2024-01-18T12:12:22.905Z,0.28
2024-01-18T12:14:50.438Z,0.30
2024-01-18T12:17:18.335Z,0.20
2024-01-18T12:19:49.699Z,0.00
2024-01-18T12:22:21.238Z,0.00
2024-01-18T12:24:50.318Z,0.35
2024-01-18T12:27:17.913Z,0.03
2024-01-18T12:29:45.608Z,0.40
2024-01-18T12:32:13.163Z,0.30
2024-01-18T12:34:40.969Z,0.43
2024-01-18T12:37:08.447Z,0.65
2024-01-18T12:39:36.107Z,0.30
2024-01-18T12:42:04.502Z,0.00
2024-01-18T12:44:35.094Z,1.05
2024-01-18T12:47:05.508Z,0.32
2024-01-18T12:49:35.928Z,0.25
2024-01-18T12:52:04.831Z,0.20
2024-01-18T12:54:33.100Z,0.45
2024-01-18T12:57:01.648Z,0.40
2024-01-18T12:59:33.479Z,0.77
2024-01-18T13:02:01.052Z,0.63
2024-01-18T13:04:29.781Z,0.52
2024-01-18T13:07:02.683Z,0.35
2024-01-18T13:09:33.394Z,0.00
2024-01-18T13:12:04.922Z,0.68
2024-01-18T13:14:33.965Z,0.90
2024-01-18T13:17:01.967Z,0.28
2024-01-18T13:19:30.785Z,0.10
2024-01-18T13:21:58.597Z,0.17
2024-01-18T13:24:27.432Z,0.20
2024-01-18T13:26:55.228Z,0.77
2024-01-18T13:29:22.539Z,0.10
2024-01-18T13:31:50.053Z,0.20
2024-01-18T13:34:18.528Z,0.20
2024-01-18T13:36:47.734Z,0.20
2024-01-18T13:39:15.368Z,0.10
2024-01-18T13:41:42.808Z,0.20
2024-01-18T13:44:10.465Z,0.10
2024-01-18T13:46:42.281Z,0.20
2024-01-18T13:49:11.354Z,0.43
2024-01-18T13:51:39.167Z,0.30
2024-01-18T13:54:06.644Z,0.20
2024-01-18T13:56:34.586Z,0.52
2024-01-18T13:59:02.016Z,0.25
2024-01-18T14:01:29.885Z,0.20
2024-01-18T14:03:57.339Z,0.30
2024-01-18T14:06:24.992Z,0.43
2024-01-18T14:08:52.974Z,1.10
2024-01-18T14:11:20.305Z,0.65
2024-01-18T14:13:47.852Z,0.20
2024-01-18T14:16:16.396Z,2.15
2024-01-18T14:18:44.247Z,1.00
2024-01-18T14:21:12.740Z,0.45
2024-01-18T14:23:40.040Z,0.20
2024-01-18T14:26:07.460Z,0.22
2024-01-18T14:28:35.581Z,0.40
2024-01-18T14:31:03.561Z,0.20
2024-01-18T14:33:31.769Z,0.30
2024-01-18T14:35:59.087Z,0.40
2024-01-18T14:38:26.517Z,0.30
2024-01-18T14:40:53.854Z,0.82
2024-01-18T14:43:21.190Z,0.60
2024-01-18T14:45:49.550Z,0.50
2024-01-18T14:48:19.846Z,0.30
2024-01-18T14:50:47.602Z,0.30
2024-01-18T14:53:16.116Z,0.40
2024-01-18T14:55:43.819Z,0.75
2024-01-18T14:58:11.941Z,0.90
2024-01-18T15:00:39.608Z,0.52
2024-01-18T15:03:07.590Z,0.50
2024-01-18T15:05:35.288Z,0.40
2024-01-18T15:08:06.259Z,1.00
2024-01-18T15:10:34.121Z,0.40
2024-01-18T15:13:01.461Z,0.40
2024-01-18T15:15:29.346Z,0.40
2024-01-18T15:17:58.201Z,0.50
2024-01-18T15:20:25.791Z,0.55
2024-01-18T15:22:53.171Z,0.70
2024-01-18T15:25:20.714Z,0.50
2024-01-18T15:27:48.443Z,0.50
2024-01-18T15:30:16.001Z,0.85
2024-01-18T15:32:43.437Z,0.60
2024-01-18T15:35:12.653Z,1.88
2024-01-18T15:37:40.135Z,0.70
2024-01-18T15:40:08.136Z,0.60
2024-01-18T15:42:35.833Z,0.60
2024-01-18T15:45:04.120Z,0.90
2024-01-18T15:47:31.694Z,0.65
2024-01-18T15:49:59.547Z,0.50
2024-01-18T15:52:26.909Z,1.05
2024-01-18T15:54:54.341Z,1.13
2024-01-18T15:57:21.589Z,0.85
2024-01-18T15:59:49.352Z,0.98
2024-01-18T16:02:16.699Z,1.60
2024-01-18T16:04:43.982Z,2.08
2024-01-18T16:07:12.122Z,1.38
2024-01-18T16:09:40.043Z,2.25
2024-01-18T16:12:07.601Z,1.45
2024-01-18T16:14:34.998Z,2.00
2024-01-18T16:17:06.444Z,1.50
2024-01-18T16:19:33.837Z,1.77
2024-01-18T16:22:01.285Z,1.75
2024-01-18T16:24:32.761Z,2.15
2024-01-18T16:27:00.387Z,1.65
2024-01-18T16:29:41.115Z,2.08
2024-01-18T16:32:17.255Z,1.80
2024-01-18T16:34:44.731Z,1.52
2024-01-18T16:37:11.937Z,1.45
2024-01-18T16:39:41.878Z,1.30
2024-01-18T16:42:09.265Z,1.38
2024-01-18T16:44:36.368Z,1.55
2024-01-18T16:47:03.964Z,1.50
2024-01-18T16:49:31.706Z,1.52
2024-01-18T16:51:58.990Z,1.80
2024-01-18T16:54:26.315Z,2.50
2024-01-18T16:56:53.548Z,2.95
2024-01-18T16:59:20.912Z,5.20
2024-01-18T17:01:48.268Z,5.45
2024-01-18T17:04:15.932Z,3.45
2024-01-18T17:06:45.722Z,3.85
2024-01-18T17:09:13.055Z,2.58
2024-01-18T17:11:40.523Z,2.70
2024-01-18T17:14:08.275Z,2.03
2024-01-18T17:16:36.210Z,1.55
2024-01-18T17:19:04.370Z,1.25
2024-01-18T17:21:32.390Z,1.83
2024-01-18T17:24:01.015Z,1.38
2024-01-18T17:26:28.546Z,2.10
2024-01-18T17:28:56.216Z,1.92
2024-01-18T17:31:23.450Z,2.08
2024-01-18T17:33:50.845Z,1.60
2024-01-18T17:36:18.149Z,1.45
2024-01-18T17:38:45.543Z,4.53
2024-01-18T17:41:13.013Z,1.40
2024-01-18T17:43:40.167Z,2.95
2024-01-18T17:46:08.723Z,2.03
2024-01-18T17:48:37.784Z,2.00
2024-01-18T17:51:06.579Z,2.03
2024-01-18T17:53:34.242Z,1.30
2024-01-18T17:56:03.322Z,1.50
2024-01-18T17:58:32.929Z,1.65
2024-01-18T18:01:05.928Z,1.77
2024-01-18T18:03:34.466Z,1.40
2024-01-18T18:06:01.859Z,1.10
2024-01-18T18:08:30.466Z,1.20
2024-01-18T18:10:58.061Z,1.58
2024-01-18T18:13:26.243Z,1.30
2024-01-18T18:15:54.223Z,2.00
2024-01-18T18:18:21.440Z,3.53
2024-01-18T18:20:50.383Z,4.82
2024-01-18T18:23:17.679Z,1.90
2024-01-18T18:25:44.923Z,1.73
2024-01-18T18:28:14.366Z,1.40
2024-01-18T18:30:52.040Z,3.15
2024-01-18T18:33:25.083Z,1.60
2024-01-18T18:35:52.656Z,1.98
2024-01-18T18:38:27.273Z,1.40
2024-01-18T18:40:59.934Z,2.45
2024-01-18T18:43:30.026Z,1.83
2024-01-18T18:45:58.264Z,2.22
2024-01-18T18:48:26.108Z,1.85
2024-01-18T18:50:54.225Z,2.00
2024-01-18T18:53:22.073Z,1.88
2024-01-18T18:55:49.475Z,1.60
2024-01-18T18:58:16.714Z,1.98
2024-01-18T19:00:46.579Z,2.95
2024-01-18T19:03:13.950Z,2.67
2024-01-18T19:05:41.636Z,3.40
2024-01-18T19:08:09.442Z,2.20
2024-01-18T19:10:37.115Z,1.60
2024-01-18T19:13:05.478Z,2.80
2024-01-18T19:15:32.884Z,1.80
2024-01-18T19:18:00.186Z,1.90
2024-01-18T19:20:27.738Z,3.58
2024-01-18T19:22:55.317Z,1.88
2024-01-18T19:25:22.648Z,2.90
2024-01-18T19:27:49.835Z,4.75
2024-01-18T19:30:17.606Z,2.53
2024-01-18T19:32:45.068Z,1.77
2024-01-18T19:35:12.778Z,1.70
2024-01-18T19:37:40.106Z,3.72
2024-01-18T19:40:09.773Z,1.92
2024-01-18T19:42:37.181Z,2.72
2024-01-18T19:45:04.629Z,2.10
2024-01-18T19:47:32.240Z,2.80
2024-01-18T19:49:59.690Z,3.00
2024-01-18T19:52:27.061Z,2.22
2024-01-18T19:54:54.464Z,1.85
2024-01-18T19:57:22.710Z,1.95
2024-01-18T19:59:50.087Z,1.90
2024-01-18T20:02:17.680Z,2.65
2024-01-18T20:04:45.948Z,2.05
2024-01-18T20:07:13.710Z,2.75
2024-01-18T20:09:41.273Z,2.38
2024-01-18T20:12:08.632Z,3.00
2024-01-18T20:14:36.307Z,2.95
2024-01-18T20:17:04.093Z,2.00
2024-01-18T20:19:32.117Z,2.92
2024-01-18T20:21:59.688Z,2.10
2024-01-18T20:24:29.055Z,2.20
2024-01-18T20:26:56.517Z,2.65
2024-01-18T20:29:26.200Z,1.90
2024-01-18T20:31:54.837Z,2.10
2024-01-18T20:34:22.575Z,5.40
2024-01-18T20:36:51.794Z,3.17
2024-01-18T20:39:19.052Z,3.70
2024-01-18T20:41:46.623Z,5.88
2024-01-18T20:44:14.753Z,4.63
2024-01-18T20:46:43.035Z,3.40
2024-01-18T20:49:13.741Z,2.38
2024-01-18T20:51:41.761Z,2.05
2024-01-18T20:54:09.523Z,2.38
2024-01-18T20:56:37.244Z,2.10
2024-01-18T20:59:04.743Z,2.20
2024-01-18T21:01:32.222Z,2.50
2024-01-18T21:03:59.474Z,2.75
2024-01-18T21:06:26.921Z,2.75
2024-01-18T21:08:54.688Z,2.30
2024-01-18T21:11:22.116Z,2.70
2024-01-18T21:13:49.555Z,3.00
2024-01-18T21:16:17.024Z,2.85
2024-01-18T21:18:44.424Z,2.88
2024-01-18T21:21:12.019Z,3.08
2024-01-18T21:23:39.826Z,4.60
2024-01-18T21:26:07.128Z,2.85
2024-01-18T21:28:34.404Z,2.20
2024-01-18T21:31:01.849Z,3.78
2024-01-18T21:33:32.357Z,2.90
2024-01-18T21:36:00.270Z,4.32
2024-01-18T21:38:27.718Z,3.20
2024-01-18T21:40:55.221Z,3.85
2024-01-18T21:43:22.412Z,3.53
2024-01-18T21:45:50.488Z,3.25
2024-01-18T21:48:18.330Z,2.50
2024-01-18T21:50:46.140Z,3.80
2024-01-18T21:53:14.841Z,3.17
2024-01-18T21:55:42.429Z,2.25
2024-01-18T21:58:09.988Z,2.90
2024-01-18T22:00:37.712Z,3.17
2024-01-18T22:03:05.853Z,2.08
2024-01-18T22:05:34.700Z,2.70
2024-01-18T22:08:02.945Z,2.20
2024-01-18T22:10:30.781Z,3.03
2024-01-18T22:12:58.045Z,2.10
2024-01-18T22:15:25.324Z,4.65
2024-01-18T22:17:52.605Z,3.45
2024-01-18T22:20:19.847Z,2.63
2024-01-18T22:22:47.305Z,2.58
2024-01-18T22:25:15.516Z,4.75
2024-01-18T22:27:43.173Z,2.85
2024-01-18T22:30:10.608Z,2.53
2024-01-18T22:32:37.843Z,2.25
2024-01-18T22:35:05.754Z,2.30
2024-01-18T22:37:33.017Z,2.33
2024-01-18T22:40:00.278Z,2.35
2024-01-18T22:42:27.790Z,2.20
2024-01-18T22:44:56.412Z,2.55
2024-01-18T22:47:23.753Z,2.72
2024-01-18T22:49:51.141Z,2.10
2024-01-18T22:52:18.662Z,2.95
2024-01-18T22:54:46.037Z,2.10
2024-01-18T22:57:13.325Z,2.58
2024-01-18T22:59:41.391Z,1.90
2024-01-18T23:02:08.741Z,2.72
2024-01-18T23:04:36.035Z,3.42
2024-01-18T23:07:03.334Z,2.33
2024-01-18T23:09:31.645Z,2.78
2024-01-18T23:11:58.842Z,2.53
2024-01-18T23:14:26.226Z,3.65
2024-01-18T23:16:53.618Z,4.03
2024-01-18T23:19:21.335Z,2.33
2024-01-18T23:21:48.826Z,2.30
2024-01-18T23:24:16.081Z,3.38
2024-01-18T23:26:44.772Z,2.20
2024-01-18T23:29:12.719Z,3.63
2024-01-18T23:31:40.483Z,3.00
2024-01-18T23:34:09.791Z,1.90
2024-01-18T23:36:38.955Z,2.17
2024-01-18T23:39:07.155Z,2.60
2024-01-18T23:41:34.432Z,2.33
2024-01-18T23:44:01.932Z,4.05
2024-01-18T23:46:29.564Z,3.45
2024-01-18T23:48:58.062Z,3.65
2024-01-18T23:51:25.678Z,3.60
2024-01-18T23:53:52.894Z,2.10
2024-01-18T23:56:20.109Z,4.05
2024-01-18T23:58:47.527Z,1.90
